KLM59N EHAM-EKBI
Flight info
| Callsign | KLM59N |
|---|---|
| Flight time | 0h 47m |
| Altitude | 33000 |
| Route | ANDIK N873 IQITA DCT REXMI DCT MIKRO DCT GELBA |
| Aircraft | A320/M-SDE3FGHIRWY/LB1 |
Departure
| Time | 2026-04-27 10:35 |
|---|---|
| Airport | Amsterdam Airport Schiphol (EHAM) |
Arrival
| Time | 2026-04-27 11:22 |
|---|---|
| Airport | Billund Airport (EKBI) |
| Time | Latitude | Longitude | Altitude | Speed | Heading |
|---|---|---|---|---|---|
| 2026-04-27 10:11 | 52.30337 | 4.76214 | -1 ft | 0 kts | 58° |
| 2026-04-27 10:22 | 52.30333 | 4.76204 | -1 ft | 2 kts | 58° |
| 2026-04-27 10:22 | 52.30324 | 4.76181 | -1 ft | 2 kts | 58° |
| 2026-04-27 10:22 | 52.30318 | 4.76156 | -1 ft | 2 kts | 99° |
| 2026-04-27 10:23 | 52.30322 | 4.76139 | -1 ft | 0 kts | 144° |
| 2026-04-27 10:25 | 52.30319 | 4.76142 | -1 ft | 3 kts | 144° |
| 2026-04-27 10:25 | 52.30283 | 4.76178 | -1 ft | 7 kts | 149° |
| 2026-04-27 10:25 | 52.30248 | 4.76213 | -1 ft | 5 kts | 148° |
| 2026-04-27 10:26 | 52.30218 | 4.76243 | -1 ft | 6 kts | 145° |
| 2026-04-27 10:26 | 52.30216 | 4.76318 | -1 ft | 9 kts | 63° |
| 2026-04-27 10:26 | 52.30258 | 4.76425 | -1 ft | 13 kts | 58° |
| 2026-04-27 10:26 | 52.30309 | 4.76556 | -1 ft | 15 kts | 57° |
| 2026-04-27 10:27 | 52.30367 | 4.76707 | -1 ft | 17 kts | 57° |
| 2026-04-27 10:27 | 52.30432 | 4.76879 | -1 ft | 19 kts | 59° |
| 2026-04-27 10:27 | 52.30504 | 4.77065 | -1 ft | 20 kts | 57° |
| 2026-04-27 10:27 | 52.30581 | 4.77267 | -1 ft | 22 kts | 57° |
| 2026-04-27 10:28 | 52.30633 | 4.77404 | -1 ft | 20 kts | 58° |
| 2026-04-27 10:28 | 52.30759 | 4.77461 | -1 ft | 20 kts | 4° |
| 2026-04-27 10:28 | 52.30905 | 4.77473 | -1 ft | 22 kts | 3° |
| 2026-04-27 10:28 | 52.31062 | 4.77490 | -1 ft | 23 kts | 4° |
| 2026-04-27 10:29 | 52.31202 | 4.77499 | -1 ft | 18 kts | 1° |
| 2026-04-27 10:29 | 52.31325 | 4.77449 | -1 ft | 20 kts | 316° |
| 2026-04-27 10:29 | 52.31419 | 4.77275 | -1 ft | 21 kts | 311° |
| 2026-04-27 10:29 | 52.31484 | 4.77058 | -1 ft | 23 kts | 268° |
| 2026-04-27 10:30 | 52.31474 | 4.76797 | -1 ft | 23 kts | 266° |
| 2026-04-27 10:30 | 52.31466 | 4.76537 | -1 ft | 23 kts | 267° |
| 2026-04-27 10:30 | 52.31457 | 4.76297 | -1 ft | 19 kts | 266° |
| 2026-04-27 10:30 | 52.31450 | 4.76084 | -1 ft | 19 kts | 267° |
| 2026-04-27 10:31 | 52.31442 | 4.75869 | -1 ft | 19 kts | 266° |
| 2026-04-27 10:31 | 52.31434 | 4.75651 | -1 ft | 19 kts | 263° |
| 2026-04-27 10:31 | 52.31425 | 4.75432 | -9 ft | 20 kts | 266° |
| 2026-04-27 10:31 | 52.31418 | 4.75210 | -1 ft | 19 kts | 268° |
| 2026-04-27 10:32 | 52.31413 | 4.75036 | -1 ft | 13 kts | 267° |
| 2026-04-27 10:32 | 52.31409 | 4.74898 | -1 ft | 11 kts | 266° |
| 2026-04-27 10:32 | 52.31406 | 4.74777 | -1 ft | 10 kts | 269° |
| 2026-04-27 10:32 | 52.31428 | 4.74684 | -1 ft | 8 kts | 322° |
| 2026-04-27 10:33 | 52.31479 | 4.74670 | -1 ft | 7 kts | 355° |
| 2026-04-27 10:33 | 52.31525 | 4.74665 | -1 ft | 6 kts | 356° |
| 2026-04-27 10:33 | 52.31564 | 4.74661 | -1 ft | 5 kts | 356° |
| 2026-04-27 10:33 | 52.31598 | 4.74660 | -1 ft | 6 kts | 2° |
| 2026-04-27 10:34 | 52.31646 | 4.74681 | 0 ft | 7 kts | 28° |
| 2026-04-27 10:34 | 52.31667 | 4.74731 | 0 ft | 3 kts | 82° |
| 2026-04-27 10:34 | 52.31667 | 4.74738 | 0 ft | 2 kts | 85° |
| 2026-04-27 10:34 | 52.31682 | 4.75174 | -3 ft | 76 kts | 87° |
| 2026-04-27 10:35 | 52.31723 | 4.76389 | -1 ft | 135 kts | 86° |
| 2026-04-27 10:35 | 52.31791 | 4.78176 | 75 ft | 174 kts | 86° |
| 2026-04-27 10:35 | 52.31877 | 4.80113 | 748 ft | 173 kts | 85° |
| 2026-04-27 10:35 | 52.31975 | 4.82091 | 1613 ft | 172 kts | 84° |
| 2026-04-27 10:36 | 52.32087 | 4.84106 | 2139 ft | 187 kts | 84° |
| 2026-04-27 10:36 | 52.32214 | 4.86305 | 2483 ft | 209 kts | 83° |
| 2026-04-27 10:36 | 52.32372 | 4.88809 | 2896 ft | 229 kts | 79° |
| 2026-04-27 10:36 | 52.32994 | 4.91313 | 3369 ft | 250 kts | 54° |
| 2026-04-27 10:37 | 52.34031 | 4.93646 | 4289 ft | 257 kts | 53° |
| 2026-04-27 10:37 | 52.35069 | 4.96001 | 5219 ft | 261 kts | 53° |
| 2026-04-27 10:37 | 52.36156 | 4.98485 | 6102 ft | 268 kts | 54° |
| 2026-04-27 10:37 | 52.37238 | 5.00967 | 6928 ft | 274 kts | 53° |
| 2026-04-27 10:38 | 52.38354 | 5.03535 | 7759 ft | 279 kts | 53° |
| 2026-04-27 10:38 | 52.39487 | 5.06142 | 8633 ft | 283 kts | 54° |
| 2026-04-27 10:38 | 52.40634 | 5.08783 | 9500 ft | 287 kts | 53° |
| 2026-04-27 10:38 | 52.41906 | 5.11314 | 10335 ft | 290 kts | 41° |
| 2026-04-27 10:39 | 52.43538 | 5.13273 | 11014 ft | 297 kts | 27° |
| 2026-04-27 10:39 | 52.45527 | 5.14536 | 11271 ft | 318 kts | 12° |
| 2026-04-27 10:39 | 52.47743 | 5.15480 | 11536 ft | 340 kts | 13° |
| 2026-04-27 10:39 | 52.50067 | 5.16476 | 12111 ft | 349 kts | 13° |
| 2026-04-27 10:40 | 52.52432 | 5.17503 | 12806 ft | 354 kts | 13° |
| 2026-04-27 10:40 | 52.54830 | 5.18555 | 13518 ft | 359 kts | 12° |
| 2026-04-27 10:40 | 52.57259 | 5.19628 | 14203 ft | 364 kts | 12° |
| 2026-04-27 10:40 | 52.59711 | 5.20718 | 14841 ft | 368 kts | 12° |
| 2026-04-27 10:41 | 52.62193 | 5.21826 | 15492 ft | 371 kts | 12° |
| 2026-04-27 10:41 | 52.64696 | 5.22940 | 16135 ft | 374 kts | 12° |
| 2026-04-27 10:41 | 52.67220 | 5.24058 | 16821 ft | 377 kts | 12° |
| 2026-04-27 10:41 | 52.69758 | 5.25190 | 17464 ft | 380 kts | 14° |
| 2026-04-27 10:42 | 52.72235 | 5.26829 | 18078 ft | 387 kts | 25° |
| 2026-04-27 10:42 | 52.74513 | 5.29260 | 18677 ft | 394 kts | 37° |
| 2026-04-27 10:42 | 52.76493 | 5.32432 | 19189 ft | 401 kts | 48° |
| 2026-04-27 10:42 | 52.78215 | 5.36075 | 19691 ft | 405 kts | 50° |
| 2026-04-27 10:43 | 52.79951 | 5.39772 | 20175 ft | 408 kts | 50° |
| 2026-04-27 10:43 | 52.81700 | 5.43481 | 20653 ft | 412 kts | 50° |
| 2026-04-27 10:43 | 52.83476 | 5.47242 | 21144 ft | 416 kts | 50° |
| 2026-04-27 10:43 | 52.85264 | 5.51034 | 21619 ft | 420 kts | 50° |
| 2026-04-27 10:44 | 52.87038 | 5.54800 | 22073 ft | 423 kts | 50° |
| 2026-04-27 10:44 | 52.88883 | 5.58731 | 22555 ft | 427 kts | 50° |
| 2026-04-27 10:44 | 52.90709 | 5.62637 | 23006 ft | 431 kts | 50° |
| 2026-04-27 10:44 | 52.92551 | 5.66584 | 23454 ft | 435 kts | 49° |
| 2026-04-27 10:45 | 52.94380 | 5.70514 | 23865 ft | 439 kts | 49° |
| 2026-04-27 10:45 | 52.96251 | 5.74544 | 24235 ft | 442 kts | 50° |
| 2026-04-27 10:45 | 52.98131 | 5.78593 | 24614 ft | 445 kts | 49° |
| 2026-04-27 10:45 | 53.00031 | 5.82681 | 24980 ft | 448 kts | 49° |
| 2026-04-27 10:46 | 53.01935 | 5.86784 | 25338 ft | 451 kts | 50° |
| 2026-04-27 10:46 | 53.03856 | 5.90928 | 25707 ft | 453 kts | 50° |
| 2026-04-27 10:46 | 53.05780 | 5.95095 | 26066 ft | 456 kts | 50° |
| 2026-04-27 10:46 | 53.07715 | 5.99301 | 26416 ft | 459 kts | 50° |
| 2026-04-27 10:47 | 53.09655 | 6.03526 | 26766 ft | 461 kts | 50° |
| 2026-04-27 10:47 | 53.11608 | 6.07779 | 27172 ft | 463 kts | 50° |
| 2026-04-27 10:47 | 53.13566 | 6.12044 | 27537 ft | 465 kts | 50° |
| 2026-04-27 10:47 | 53.15538 | 6.16344 | 27857 ft | 468 kts | 50° |
| 2026-04-27 10:48 | 53.17519 | 6.20675 | 28176 ft | 471 kts | 50° |
| 2026-04-27 10:48 | 53.19505 | 6.25031 | 28502 ft | 474 kts | 50° |
| 2026-04-27 10:48 | 53.21507 | 6.29431 | 28803 ft | 477 kts | 50° |
| 2026-04-27 10:48 | 53.23514 | 6.33850 | 29104 ft | 479 kts | 50° |
| 2026-04-27 10:49 | 53.25528 | 6.38297 | 29402 ft | 482 kts | 50° |
| 2026-04-27 10:49 | 53.27554 | 6.42771 | 29698 ft | 484 kts | 50° |
| 2026-04-27 10:49 | 53.29592 | 6.47272 | 29978 ft | 487 kts | 50° |
| 2026-04-27 10:49 | 53.31634 | 6.51794 | 30267 ft | 489 kts | 50° |
| 2026-04-27 10:50 | 53.33693 | 6.56348 | 30510 ft | 491 kts | 49° |
| 2026-04-27 10:50 | 53.35955 | 6.60592 | 30836 ft | 487 kts | 41° |
| 2026-04-27 10:50 | 53.38443 | 6.64434 | 31184 ft | 485 kts | 39° |
| 2026-04-27 10:50 | 53.40929 | 6.68247 | 31546 ft | 485 kts | 39° |
| 2026-04-27 10:51 | 53.43410 | 6.72069 | 31890 ft | 484 kts | 39° |
| 2026-04-27 10:51 | 53.45882 | 6.75888 | 32254 ft | 483 kts | 39° |
| 2026-04-27 10:51 | 53.48349 | 6.79710 | 32610 ft | 482 kts | 39° |
| 2026-04-27 10:51 | 53.50813 | 6.83535 | 32969 ft | 482 kts | 39° |
| 2026-04-27 10:52 | 53.53268 | 6.87348 | 33268 ft | 481 kts | 39° |
| 2026-04-27 10:52 | 53.55728 | 6.91169 | 33357 ft | 480 kts | 39° |
| 2026-04-27 10:52 | 53.60705 | 6.98557 | 33345 ft | 476 kts | 36° |
| 2026-04-27 10:53 | 53.68367 | 7.09197 | 33347 ft | 475 kts | 35° |
| 2026-04-27 10:54 | 53.73404 | 7.16311 | 33348 ft | 476 kts | 36° |
| 2026-04-27 10:54 | 53.78444 | 7.23565 | 33373 ft | 476 kts | 36° |
| 2026-04-27 10:55 | 53.83465 | 7.30857 | 33364 ft | 475 kts | 35° |
| 2026-04-27 10:55 | 53.88982 | 7.36725 | 33358 ft | 463 kts | 18° |
| 2026-04-27 10:56 | 53.94980 | 7.40524 | 33352 ft | 457 kts | 11° |
| 2026-04-27 10:56 | 54.01143 | 7.42742 | 33347 ft | 452 kts | 5° |
| 2026-04-27 10:57 | 54.07325 | 7.44690 | 33364 ft | 452 kts | 5° |
| 2026-04-27 10:57 | 54.13503 | 7.46650 | 33355 ft | 452 kts | 5° |
| 2026-04-27 10:58 | 54.19680 | 7.48618 | 33349 ft | 451 kts | 5° |
| 2026-04-27 10:58 | 54.25851 | 7.50578 | 33345 ft | 451 kts | 5° |
| 2026-04-27 10:59 | 54.32024 | 7.52547 | 33365 ft | 451 kts | 5° |
| 2026-04-27 10:59 | 54.38197 | 7.54522 | 33352 ft | 451 kts | 5° |
| 2026-04-27 11:00 | 54.47444 | 7.57505 | 33345 ft | 451 kts | 5° |
| 2026-04-27 11:00 | 54.53611 | 7.59493 | 33365 ft | 451 kts | 4° |
| 2026-04-27 11:01 | 54.59778 | 7.61487 | 33354 ft | 451 kts | 4° |
| 2026-04-27 11:01 | 54.65944 | 7.63493 | 33347 ft | 451 kts | 5° |
| 2026-04-27 11:02 | 54.72108 | 7.65504 | 33342 ft | 451 kts | 5° |
| 2026-04-27 11:02 | 54.78241 | 7.67502 | 33383 ft | 451 kts | 4° |
| 2026-04-27 11:03 | 54.84419 | 7.69520 | 33365 ft | 452 kts | 4° |
| 2026-04-27 11:03 | 54.90598 | 7.71549 | 33352 ft | 452 kts | 4° |
| 2026-04-27 11:04 | 54.93698 | 7.72567 | 32701 ft | 455 kts | 5° |
| 2026-04-27 11:04 | 54.96846 | 7.73599 | 31350 ft | 467 kts | 6° |
| 2026-04-27 11:04 | 55.00017 | 7.75184 | 30186 ft | 480 kts | 16° |
| 2026-04-27 11:04 | 55.03050 | 7.77689 | 29255 ft | 485 kts | 25° |
| 2026-04-27 11:05 | 55.05963 | 7.80620 | 28393 ft | 482 kts | 26° |
| 2026-04-27 11:05 | 55.08846 | 7.83523 | 27632 ft | 476 kts | 26° |
| 2026-04-27 11:05 | 55.11700 | 7.86391 | 26909 ft | 470 kts | 26° |
| 2026-04-27 11:05 | 55.14519 | 7.89228 | 26253 ft | 463 kts | 26° |
| 2026-04-27 11:06 | 55.17293 | 7.92021 | 25532 ft | 459 kts | 26° |
| 2026-04-27 11:06 | 55.20046 | 7.94796 | 24891 ft | 453 kts | 26° |
| 2026-04-27 11:06 | 55.22760 | 7.97546 | 24228 ft | 449 kts | 26° |
| 2026-04-27 11:06 | 55.25454 | 8.00278 | 23534 ft | 444 kts | 26° |
| 2026-04-27 11:07 | 55.28107 | 8.02974 | 22920 ft | 438 kts | 26° |
| 2026-04-27 11:07 | 55.30734 | 8.05647 | 22224 ft | 434 kts | 26° |
| 2026-04-27 11:07 | 55.33328 | 8.08291 | 21631 ft | 428 kts | 27° |
| 2026-04-27 11:07 | 55.35882 | 8.10902 | 21110 ft | 421 kts | 27° |
| 2026-04-27 11:08 | 55.38363 | 8.13441 | 20586 ft | 415 kts | 27° |
| 2026-04-27 11:08 | 55.40813 | 8.16174 | 20069 ft | 412 kts | 34° |
| 2026-04-27 11:08 | 55.42903 | 8.19511 | 19560 ft | 410 kts | 45° |
| 2026-04-27 11:08 | 55.44756 | 8.23287 | 19056 ft | 406 kts | 47° |
| 2026-04-27 11:09 | 55.46586 | 8.27041 | 18510 ft | 402 kts | 47° |
| 2026-04-27 11:09 | 55.48402 | 8.30763 | 17965 ft | 397 kts | 47° |
| 2026-04-27 11:09 | 55.50192 | 8.34432 | 17439 ft | 393 kts | 47° |
| 2026-04-27 11:09 | 55.51966 | 8.38073 | 16908 ft | 389 kts | 46° |
| 2026-04-27 11:10 | 55.53722 | 8.41689 | 16358 ft | 386 kts | 47° |
| 2026-04-27 11:10 | 55.55458 | 8.45276 | 15838 ft | 383 kts | 46° |
| 2026-04-27 11:10 | 55.57185 | 8.48849 | 15298 ft | 381 kts | 46° |
| 2026-04-27 11:10 | 55.58899 | 8.52397 | 14766 ft | 378 kts | 46° |
| 2026-04-27 11:11 | 55.60600 | 8.55922 | 14223 ft | 376 kts | 46° |
| 2026-04-27 11:11 | 55.62291 | 8.59431 | 13655 ft | 374 kts | 46° |
| 2026-04-27 11:11 | 55.63966 | 8.62920 | 13100 ft | 370 kts | 47° |
| 2026-04-27 11:11 | 55.65295 | 8.66803 | 12570 ft | 372 kts | 67° |
| 2026-04-27 11:12 | 55.65818 | 8.71273 | 12054 ft | 371 kts | 83° |
| 2026-04-27 11:12 | 55.66013 | 8.75809 | 11540 ft | 367 kts | 84° |
| 2026-04-27 11:12 | 55.66185 | 8.80271 | 11151 ft | 359 kts | 84° |
| 2026-04-27 11:12 | 55.66351 | 8.84636 | 10804 ft | 352 kts | 84° |
| 2026-04-27 11:13 | 55.66510 | 8.88907 | 10461 ft | 344 kts | 84° |
| 2026-04-27 11:13 | 55.66661 | 8.93015 | 10284 ft | 322 kts | 84° |
| 2026-04-27 11:13 | 55.66794 | 8.96835 | 10247 ft | 301 kts | 84° |
| 2026-04-27 11:13 | 55.66917 | 9.00509 | 10196 ft | 298 kts | 84° |
| 2026-04-27 11:14 | 55.67026 | 9.04102 | 9953 ft | 286 kts | 84° |
| 2026-04-27 11:14 | 55.67130 | 9.07597 | 9679 ft | 283 kts | 84° |
| 2026-04-27 11:14 | 55.67234 | 9.11056 | 9358 ft | 280 kts | 84° |
| 2026-04-27 11:14 | 55.67339 | 9.14488 | 8968 ft | 278 kts | 84° |
| 2026-04-27 11:15 | 55.67444 | 9.17892 | 8576 ft | 275 kts | 84° |
| 2026-04-27 11:15 | 55.67516 | 9.20132 | 8320 ft | 274 kts | 84° |
| 2026-04-27 11:15 | 55.67625 | 9.23483 | 7937 ft | 272 kts | 84° |
| 2026-04-27 11:15 | 55.67736 | 9.26815 | 7561 ft | 270 kts | 84° |
| 2026-04-27 11:16 | 55.67849 | 9.30123 | 7184 ft | 268 kts | 84° |
| 2026-04-27 11:16 | 55.67965 | 9.33396 | 6766 ft | 265 kts | 84° |
| 2026-04-27 11:16 | 55.68121 | 9.37681 | 6156 ft | 261 kts | 84° |
| 2026-04-27 11:16 | 55.68244 | 9.40877 | 5714 ft | 259 kts | 84° |
| 2026-04-27 11:17 | 55.68371 | 9.44026 | 5280 ft | 253 kts | 84° |
| 2026-04-27 11:17 | 55.68458 | 9.46104 | 4986 ft | 248 kts | 83° |
| 2026-04-27 11:17 | 55.68930 | 9.48943 | 4530 ft | 238 kts | 56° |
| 2026-04-27 11:17 | 55.70117 | 9.50852 | 4093 ft | 230 kts | 24° |
| 2026-04-27 11:18 | 55.71658 | 9.51291 | 3654 ft | 226 kts | 351° |
| 2026-04-27 11:18 | 55.73095 | 9.50212 | 3285 ft | 226 kts | 328° |
| 2026-04-27 11:18 | 55.74238 | 9.48336 | 3021 ft | 227 kts | 303° |
| 2026-04-27 11:18 | 55.74955 | 9.45857 | 2760 ft | 226 kts | 294° |
| 2026-04-27 11:19 | 55.75183 | 9.43146 | 2494 ft | 226 kts | 259° |
| 2026-04-27 11:19 | 55.74789 | 9.40499 | 2230 ft | 224 kts | 261° |
| 2026-04-27 11:19 | 55.74672 | 9.37778 | 2084 ft | 218 kts | 268° |
| 2026-04-27 11:19 | 55.74618 | 9.35191 | 2001 ft | 201 kts | 268° |
| 2026-04-27 11:20 | 55.74556 | 9.32852 | 1964 ft | 181 kts | 268° |
| 2026-04-27 11:20 | 55.74495 | 9.30740 | 1782 ft | 160 kts | 267° |
| 2026-04-27 11:20 | 55.74433 | 9.28825 | 1543 ft | 152 kts | 267° |
| 2026-04-27 11:20 | 55.74382 | 9.26967 | 1312 ft | 149 kts | 267° |
| 2026-04-27 11:21 | 55.74332 | 9.25148 | 1049 ft | 147 kts | 268° |
| 2026-04-27 11:21 | 55.74278 | 9.23339 | 870 ft | 147 kts | 267° |
| 2026-04-27 11:21 | 55.74224 | 9.21540 | 675 ft | 145 kts | 267° |
| 2026-04-27 11:21 | 55.74171 | 9.19756 | 474 ft | 144 kts | 266° |
| 2026-04-27 11:22 | 55.74117 | 9.17982 | 282 ft | 143 kts | 266° |
| 2026-04-27 11:22 | 55.74077 | 9.16307 | 219 ft | 124 kts | 262° |
| 2026-04-27 11:22 | 55.74036 | 9.15204 | 216 ft | 53 kts | 268° |
| 2026-04-27 11:22 | 55.74023 | 9.14850 | 216 ft | 23 kts | 268° |
| 2026-04-27 11:23 | 55.74017 | 9.14602 | 216 ft | 12 kts | 268° |
| 2026-04-27 11:23 | 55.74043 | 9.14509 | 216 ft | 8 kts | 331° |
| 2026-04-27 11:23 | 55.74070 | 9.14498 | 216 ft | 0 kts | 354° |
| 2026-04-27 11:23 | 55.74108 | 9.14493 | 216 ft | 9 kts | 357° |
| 2026-04-27 11:24 | 55.74184 | 9.14486 | 216 ft | 11 kts | 357° |
| 2026-04-27 11:24 | 55.74258 | 9.14478 | 216 ft | 10 kts | 356° |
| 2026-04-27 11:24 | 55.74323 | 9.14471 | 222 ft | 9 kts | 357° |
| 2026-04-27 11:24 | 55.74379 | 9.14467 | 224 ft | 8 kts | 355° |
| 2026-04-27 11:25 | 55.74425 | 9.14481 | 223 ft | 6 kts | 30° |
| 2026-04-27 11:25 | 55.74462 | 9.14494 | 216 ft | 5 kts | 1° |
| 2026-04-27 11:25 | 55.74494 | 9.14490 | 219 ft | 4 kts | 357° |
| 2026-04-27 11:25 | 55.74517 | 9.14488 | 216 ft | 3 kts | 357° |
| 2026-04-27 11:26 | 55.74525 | 9.14487 | 219 ft | 0 kts | 357° |